sensor_id;sensor_type;location;lat;lon;timestamp;temperature;humidity
20483;DHT22;10400;53.198;6.592;2023-10-13T00:00:29;14.70;99.90
20483;DHT22;10400;53.198;6.592;2023-10-13T00:02:58;14.80;99.90
20483;DHT22;10400;53.198;6.592;2023-10-13T00:05:30;14.80;99.90
20483;DHT22;10400;53.198;6.592;2023-10-13T00:07:58;14.80;99.90
20483;DHT22;10400;53.198;6.592;2023-10-13T00:10:31;14.80;99.90
20483;DHT22;10400;53.198;6.592;2023-10-13T00:12:59;14.90;99.90
20483;DHT22;10400;53.198;6.592;2023-10-13T00:15:51;15.00;99.90
20483;DHT22;10400;53.198;6.592;2023-10-13T00:18:32;15.10;99.90
20483;DHT22;10400;53.198;6.592;2023-10-13T00:21:08;15.10;99.90
20483;DHT22;10400;53.198;6.592;2023-10-13T00:24:01;15.20;99.90
20483;DHT22;10400;53.198;6.592;2023-10-13T00:26:28;15.20;99.90
20483;DHT22;10400;53.198;6.592;2023-10-13T00:28:58;15.30;99.90
20483;DHT22;10400;53.198;6.592;2023-10-13T00:31:26;15.30;99.90
20483;DHT22;10400;53.198;6.592;2023-10-13T00:33:59;15.40;99.90
20483;DHT22;10400;53.198;6.592;2023-10-13T00:36:35;15.40;99.90
20483;DHT22;10400;53.198;6.592;2023-10-13T00:39:01;15.40;99.90
20483;DHT22;10400;53.198;6.592;2023-10-13T00:41:26;15.40;99.90
20483;DHT22;10400;53.198;6.592;2023-10-13T00:44:12;15.50;99.90
20483;DHT22;10400;53.198;6.592;2023-10-13T00:46:41;15.50;99.90
20483;DHT22;10400;53.198;6.592;2023-10-13T00:49:10;15.50;99.90
20483;DHT22;10400;53.198;6.592;2023-10-13T00:51:44;15.60;99.90
20483;DHT22;10400;53.198;6.592;2023-10-13T00:54:13;15.60;99.90
20483;DHT22;10400;53.198;6.592;2023-10-13T00:56:41;15.70;99.90
20483;DHT22;10400;53.198;6.592;2023-10-13T00:59:18;15.60;99.90
20483;DHT22;10400;53.198;6.592;2023-10-13T01:01:48;15.70;99.90
20483;DHT22;10400;53.198;6.592;2023-10-13T01:04:20;15.80;99.90
20483;DHT22;10400;53.198;6.592;2023-10-13T01:06:45;15.80;99.90
20483;DHT22;10400;53.198;6.592;2023-10-13T01:09:11;15.80;99.90
20483;DHT22;10400;53.198;6.592;2023-10-13T01:11:42;15.90;99.90
20483;DHT22;10400;53.198;6.592;2023-10-13T01:14:12;15.90;99.90
20483;DHT22;10400;53.198;6.592;2023-10-13T01:16:40;15.80;99.90
20483;DHT22;10400;53.198;6.592;2023-10-13T01:19:12;15.90;99.90
20483;DHT22;10400;53.198;6.592;2023-10-13T01:21:40;15.90;99.90
20483;DHT22;10400;53.198;6.592;2023-10-13T01:24:07;15.90;99.90
20483;DHT22;10400;53.198;6.592;2023-10-13T01:26:36;15.90;99.90
20483;DHT22;10400;53.198;6.592;2023-10-13T01:29:06;16.00;99.90
20483;DHT22;10400;53.198;6.592;2023-10-13T01:31:43;16.00;99.90
20483;DHT22;10400;53.198;6.592;2023-10-13T01:34:15;16.00;99.90
20483;DHT22;10400;53.198;6.592;2023-10-13T01:36:56;16.10;99.90
20483;DHT22;10400;53.198;6.592;2023-10-13T01:39:23;16.00;99.90
20483;DHT22;10400;53.198;6.592;2023-10-13T01:41:54;16.10;99.90
20483;DHT22;10400;53.198;6.592;2023-10-13T01:44:26;16.10;99.90
20483;DHT22;10400;53.198;6.592;2023-10-13T01:47:01;16.10;99.90
20483;DHT22;10400;53.198;6.592;2023-10-13T01:49:35;16.10;99.90
20483;DHT22;10400;53.198;6.592;2023-10-13T01:52:07;16.10;99.90
20483;DHT22;10400;53.198;6.592;2023-10-13T01:54:37;16.10;99.90
20483;DHT22;10400;53.198;6.592;2023-10-13T01:57:06;16.20;99.90
20483;DHT22;10400;53.198;6.592;2023-10-13T01:59:32;16.20;99.90
20483;DHT22;10400;53.198;6.592;2023-10-13T02:01:58;16.20;99.90
20483;DHT22;10400;53.198;6.592;2023-10-13T02:04:27;16.20;99.90
20483;DHT22;10400;53.198;6.592;2023-10-13T02:06:53;16.20;99.90
20483;DHT22;10400;53.198;6.592;2023-10-13T02:09:18;16.20;99.90
20483;DHT22;10400;53.198;6.592;2023-10-13T02:11:55;16.20;99.90
20483;DHT22;10400;53.198;6.592;2023-10-13T02:14:23;16.20;99.90
20483;DHT22;10400;53.198;6.592;2023-10-13T02:16:51;16.30;99.90
20483;DHT22;10400;53.198;6.592;2023-10-13T02:19:21;16.30;99.90
20483;DHT22;10400;53.198;6.592;2023-10-13T02:21:47;16.30;99.90
20483;DHT22;10400;53.198;6.592;2023-10-13T02:24:24;16.30;99.90
20483;DHT22;10400;53.198;6.592;2023-10-13T02:26:56;16.40;99.90
20483;DHT22;10400;53.198;6.592;2023-10-13T02:29:25;16.30;99.90
20483;DHT22;10400;53.198;6.592;2023-10-13T02:31:51;16.30;99.90
20483;DHT22;10400;53.198;6.592;2023-10-13T02:34:21;16.40;99.90
20483;DHT22;10400;53.198;6.592;2023-10-13T02:36:48;16.40;99.90
20483;DHT22;10400;53.198;6.592;2023-10-13T02:39:15;16.40;99.90
20483;DHT22;10400;53.198;6.592;2023-10-13T02:41:50;16.40;99.90
20483;DHT22;10400;53.198;6.592;2023-10-13T02:44:16;16.40;99.90
20483;DHT22;10400;53.198;6.592;2023-10-13T02:46:57;16.40;99.90
20483;DHT22;10400;53.198;6.592;2023-10-13T02:49:26;16.40;99.90
20483;DHT22;10400;53.198;6.592;2023-10-13T02:51:53;16.40;99.90
20483;DHT22;10400;53.198;6.592;2023-10-13T02:54:21;16.40;99.90
20483;DHT22;10400;53.198;6.592;2023-10-13T02:56:47;16.40;99.90
20483;DHT22;10400;53.198;6.592;2023-10-13T02:59:23;16.40;99.90
20483;DHT22;10400;53.198;6.592;2023-10-13T03:02:01;16.40;99.90
20483;DHT22;10400;53.198;6.592;2023-10-13T03:04:32;16.40;99.90
20483;DHT22;10400;53.198;6.592;2023-10-13T03:06:58;16.40;99.90
20483;DHT22;10400;53.198;6.592;2023-10-13T03:09:25;16.40;99.90
20483;DHT22;10400;53.198;6.592;2023-10-13T03:11:51;16.50;99.90
20483;DHT22;10400;53.198;6.592;2023-10-13T03:14:21;16.50;99.90
20483;DHT22;10400;53.198;6.592;2023-10-13T03:16:54;16.60;99.90
20483;DHT22;10400;53.198;6.592;2023-10-13T03:19:19;16.60;99.90
20483;DHT22;10400;53.198;6.592;2023-10-13T03:21:46;16.60;99.90
20483;DHT22;10400;53.198;6.592;2023-10-13T03:24:21;16.60;99.90
20483;DHT22;10400;53.198;6.592;2023-10-13T03:27:03;16.60;99.90
20483;DHT22;10400;53.198;6.592;2023-10-13T03:29:39;16.60;99.90
20483;DHT22;10400;53.198;6.592;2023-10-13T03:32:11;16.60;99.90
20483;DHT22;10400;53.198;6.592;2023-10-13T03:34:40;16.60;99.90
20483;DHT22;10400;53.198;6.592;2023-10-13T03:37:15;16.60;99.90
20483;DHT22;10400;53.198;6.592;2023-10-13T03:40:07;16.60;99.90
20483;DHT22;10400;53.198;6.592;2023-10-13T03:42:55;16.60;99.90
20483;DHT22;10400;53.198;6.592;2023-10-13T03:45:34;16.60;99.90
20483;DHT22;10400;53.198;6.592;2023-10-13T03:48:04;16.60;99.90
20483;DHT22;10400;53.198;6.592;2023-10-13T03:50:38;16.60;99.90
20483;DHT22;10400;53.198;6.592;2023-10-13T03:53:13;16.60;99.90
20483;DHT22;10400;53.198;6.592;2023-10-13T03:55:39;16.60;99.90
20483;DHT22;10400;53.198;6.592;2023-10-13T03:58:05;16.60;99.90
20483;DHT22;10400;53.198;6.592;2023-10-13T04:00:32;16.60;99.90
20483;DHT22;10400;53.198;6.592;2023-10-13T04:02:58;16.60;99.90
20483;DHT22;10400;53.198;6.592;2023-10-13T04:05:41;16.60;99.90
20483;DHT22;10400;53.198;6.592;2023-10-13T04:08:26;16.60;99.90
20483;DHT22;10400;53.198;6.592;2023-10-13T04:10:58;16.60;99.90
20483;DHT22;10400;53.198;6.592;2023-10-13T04:13:23;16.60;99.90
20483;DHT22;10400;53.198;6.592;2023-10-13T04:16:08;16.70;99.90
20483;DHT22;10400;53.198;6.592;2023-10-13T04:18:54;16.60;99.90
20483;DHT22;10400;53.198;6.592;2023-10-13T04:21:23;16.60;99.90
20483;DHT22;10400;53.198;6.592;2023-10-13T04:24:11;16.60;99.90
20483;DHT22;10400;53.198;6.592;2023-10-13T04:26:53;16.60;99.90
20483;DHT22;10400;53.198;6.592;2023-10-13T04:29:40;16.60;99.90
20483;DHT22;10400;53.198;6.592;2023-10-13T04:32:38;16.70;99.90
20483;DHT22;10400;53.198;6.592;2023-10-13T04:35:04;16.60;99.90
20483;DHT22;10400;53.198;6.592;2023-10-13T04:37:40;16.60;99.90
20483;DHT22;10400;53.198;6.592;2023-10-13T04:40:24;16.60;99.90
20483;DHT22;10400;53.198;6.592;2023-10-13T04:42:54;16.70;99.90
20483;DHT22;10400;53.198;6.592;2023-10-13T04:45:22;16.70;99.90
20483;DHT22;10400;53.198;6.592;2023-10-13T04:48:08;16.70;99.90
20483;DHT22;10400;53.198;6.592;2023-10-13T04:50:47;16.70;99.90
20483;DHT22;10400;53.198;6.592;2023-10-13T04:53:18;16.70;99.90
20483;DHT22;10400;53.198;6.592;2023-10-13T04:56:00;16.70;99.90
20483;DHT22;10400;53.198;6.592;2023-10-13T04:58:29;16.70;99.90
20483;DHT22;10400;53.198;6.592;2023-10-13T05:01:04;16.70;99.90
20483;DHT22;10400;53.198;6.592;2023-10-13T05:03:51;16.70;99.90
20483;DHT22;10400;53.198;6.592;2023-10-13T05:06:35;16.60;99.90
20483;DHT22;10400;53.198;6.592;2023-10-13T05:09:07;16.70;99.90
20483;DHT22;10400;53.198;6.592;2023-10-13T05:11:51;16.70;99.90
20483;DHT22;10400;53.198;6.592;2023-10-13T05:14:35;16.70;99.90
20483;DHT22;10400;53.198;6.592;2023-10-13T05:17:19;16.60;99.90
20483;DHT22;10400;53.198;6.592;2023-10-13T05:20:04;16.60;99.90
20483;DHT22;10400;53.198;6.592;2023-10-13T05:22:48;16.60;99.90
20483;DHT22;10400;53.198;6.592;2023-10-13T05:25:36;16.60;99.90
20483;DHT22;10400;53.198;6.592;2023-10-13T05:28:20;16.60;99.90
20483;DHT22;10400;53.198;6.592;2023-10-13T05:31:06;16.60;99.90
20483;DHT22;10400;53.198;6.592;2023-10-13T05:33:51;16.70;99.90
20483;DHT22;10400;53.198;6.592;2023-10-13T05:36:35;16.60;99.90
20483;DHT22;10400;53.198;6.592;2023-10-13T05:39:19;16.60;99.90
20483;DHT22;10400;53.198;6.592;2023-10-13T05:42:03;16.60;99.90
20483;DHT22;10400;53.198;6.592;2023-10-13T05:44:47;16.60;99.90
20483;DHT22;10400;53.198;6.592;2023-10-13T05:47:42;16.60;99.90
20483;DHT22;10400;53.198;6.592;2023-10-13T05:50:08;16.50;99.90
20483;DHT22;10400;53.198;6.592;2023-10-13T05:52:46;16.50;99.90
20483;DHT22;10400;53.198;6.592;2023-10-13T05:55:28;16.50;99.90
20483;DHT22;10400;53.198;6.592;2023-10-13T05:58:13;16.40;99.90
20483;DHT22;10400;53.198;6.592;2023-10-13T06:00:58;16.40;99.90
20483;DHT22;10400;53.198;6.592;2023-10-13T06:03:42;16.40;99.90
20483;DHT22;10400;53.198;6.592;2023-10-13T06:06:26;16.40;99.90
20483;DHT22;10400;53.198;6.592;2023-10-13T06:09:11;16.40;99.90
20483;DHT22;10400;53.198;6.592;2023-10-13T06:11:55;16.30;99.90
20483;DHT22;10400;53.198;6.592;2023-10-13T06:14:39;16.30;99.90
20483;DHT22;10400;53.198;6.592;2023-10-13T06:17:23;16.30;99.90
20483;DHT22;10400;53.198;6.592;2023-10-13T06:20:08;16.30;99.90
20483;DHT22;10400;53.198;6.592;2023-10-13T06:22:52;16.30;99.90
20483;DHT22;10400;53.198;6.592;2023-10-13T06:25:37;16.30;99.90
20483;DHT22;10400;53.198;6.592;2023-10-13T06:28:21;16.30;99.90
20483;DHT22;10400;53.198;6.592;2023-10-13T06:31:05;16.30;99.90
20483;DHT22;10400;53.198;6.592;2023-10-13T06:33:34;16.30;99.90
20483;DHT22;10400;53.198;6.592;2023-10-13T06:36:04;16.30;99.90
20483;DHT22;10400;53.198;6.592;2023-10-13T06:38:37;16.40;99.90
20483;DHT22;10400;53.198;6.592;2023-10-13T06:41:07;16.30;99.90
20483;DHT22;10400;53.198;6.592;2023-10-13T06:43:33;16.40;99.90
20483;DHT22;10400;53.198;6.592;2023-10-13T06:46:11;16.40;99.90
20483;DHT22;10400;53.198;6.592;2023-10-13T06:48:41;16.40;99.90
20483;DHT22;10400;53.198;6.592;2023-10-13T06:51:07;16.40;99.90
20483;DHT22;10400;53.198;6.592;2023-10-13T06:53:48;16.40;99.90
20483;DHT22;10400;53.198;6.592;2023-10-13T06:56:17;16.40;99.90
20483;DHT22;10400;53.198;6.592;2023-10-13T06:58:54;16.40;99.90
20483;DHT22;10400;53.198;6.592;2023-10-13T07:01:29;16.50;99.90
20483;DHT22;10400;53.198;6.592;2023-10-13T07:03:55;16.50;99.90
20483;DHT22;10400;53.198;6.592;2023-10-13T07:06:27;16.60;99.90
20483;DHT22;10400;53.198;6.592;2023-10-13T07:08:52;16.60;99.90
20483;DHT22;10400;53.198;6.592;2023-10-13T07:11:23;16.60;99.90
20483;DHT22;10400;53.198;6.592;2023-10-13T07:14:00;16.60;99.90
20483;DHT22;10400;53.198;6.592;2023-10-13T07:16:26;16.70;99.90
20483;DHT22;10400;53.198;6.592;2023-10-13T07:19:00;16.70;99.90
20483;DHT22;10400;53.198;6.592;2023-10-13T07:21:31;16.70;99.90
20483;DHT22;10400;53.198;6.592;2023-10-13T07:23:57;16.70;99.90
20483;DHT22;10400;53.198;6.592;2023-10-13T07:26:33;16.70;99.90
20483;DHT22;10400;53.198;6.592;2023-10-13T07:28:59;16.60;99.90
20483;DHT22;10400;53.198;6.592;2023-10-13T07:31:25;16.70;99.90
20483;DHT22;10400;53.198;6.592;2023-10-13T07:33:52;16.70;99.90
20483;DHT22;10400;53.198;6.592;2023-10-13T07:36:28;16.70;99.90
20483;DHT22;10400;53.198;6.592;2023-10-13T07:39:05;16.70;99.90
20483;DHT22;10400;53.198;6.592;2023-10-13T07:41:50;16.70;99.90
20483;DHT22;10400;53.198;6.592;2023-10-13T07:44:34;16.70;99.90
20483;DHT22;10400;53.198;6.592;2023-10-13T07:47:05;16.70;99.90
20483;DHT22;10400;53.198;6.592;2023-10-13T07:49:35;16.70;99.90
20483;DHT22;10400;53.198;6.592;2023-10-13T07:52:03;16.70;99.90
20483;DHT22;10400;53.198;6.592;2023-10-13T07:54:47;16.70;99.90
20483;DHT22;10400;53.198;6.592;2023-10-13T07:57:15;16.70;99.90
20483;DHT22;10400;53.198;6.592;2023-10-13T07:59:41;16.70;99.90
20483;DHT22;10400;53.198;6.592;2023-10-13T08:02:15;16.70;99.90
20483;DHT22;10400;53.198;6.592;2023-10-13T08:05:00;16.70;99.90
20483;DHT22;10400;53.198;6.592;2023-10-13T08:07:26;16.70;99.90
20483;DHT22;10400;53.198;6.592;2023-10-13T08:09:54;16.70;99.90
20483;DHT22;10400;53.198;6.592;2023-10-13T08:12:19;16.70;99.90
20483;DHT22;10400;53.198;6.592;2023-10-13T08:14:47;16.80;99.90
20483;DHT22;10400;53.198;6.592;2023-10-13T08:17:13;16.80;99.90
20483;DHT22;10400;53.198;6.592;2023-10-13T08:19:41;16.80;99.90
20483;DHT22;10400;53.198;6.592;2023-10-13T08:22:11;16.80;99.90
20483;DHT22;10400;53.198;6.592;2023-10-13T08:25:00;16.80;99.90
20483;DHT22;10400;53.198;6.592;2023-10-13T08:27:55;16.90;99.90
20483;DHT22;10400;53.198;6.592;2023-10-13T08:30:39;16.90;99.90
20483;DHT22;10400;53.198;6.592;2023-10-13T08:33:17;17.00;99.90
20483;DHT22;10400;53.198;6.592;2023-10-13T08:35:44;16.90;99.90
20483;DHT22;10400;53.198;6.592;2023-10-13T08:38:30;17.00;99.90
20483;DHT22;10400;53.198;6.592;2023-10-13T08:41:09;17.00;99.90
20483;DHT22;10400;53.198;6.592;2023-10-13T08:43:52;17.00;99.90
20483;DHT22;10400;53.198;6.592;2023-10-13T08:46:30;17.00;99.90
20483;DHT22;10400;53.198;6.592;2023-10-13T08:49:06;17.10;99.90
20483;DHT22;10400;53.198;6.592;2023-10-13T08:51:42;17.10;99.90
20483;DHT22;10400;53.198;6.592;2023-10-13T08:54:14;17.20;99.90
20483;DHT22;10400;53.198;6.592;2023-10-13T08:57:00;17.20;99.90
20483;DHT22;10400;53.198;6.592;2023-10-13T08:59:45;17.20;99.90
20483;DHT22;10400;53.198;6.592;2023-10-13T09:02:23;17.20;99.90
20483;DHT22;10400;53.198;6.592;2023-10-13T09:05:09;17.30;99.90
20483;DHT22;10400;53.198;6.592;2023-10-13T09:07:55;17.30;99.90
20483;DHT22;10400;53.198;6.592;2023-10-13T09:10:24;17.40;99.90
20483;DHT22;10400;53.198;6.592;2023-10-13T09:12:58;17.40;99.90
20483;DHT22;10400;53.198;6.592;2023-10-13T09:15:29;17.50;99.90
20483;DHT22;10400;53.198;6.592;2023-10-13T09:18:25;17.60;99.90
20483;DHT22;10400;53.198;6.592;2023-10-13T09:21:12;17.60;99.90
20483;DHT22;10400;53.198;6.592;2023-10-13T09:23:56;17.70;99.90
20483;DHT22;10400;53.198;6.592;2023-10-13T09:26:42;17.70;99.90
20483;DHT22;10400;53.198;6.592;2023-10-13T09:29:17;17.70;99.90
20483;DHT22;10400;53.198;6.592;2023-10-13T09:31:45;17.80;99.90
20483;DHT22;10400;53.198;6.592;2023-10-13T09:34:20;17.80;99.90
20483;DHT22;10400;53.198;6.592;2023-10-13T09:36:47;18.00;99.90
20483;DHT22;10400;53.198;6.592;2023-10-13T09:39:14;18.00;99.90
20483;DHT22;10400;53.198;6.592;2023-10-13T09:41:55;18.00;99.90
20483;DHT22;10400;53.198;6.592;2023-10-13T09:44:25;18.10;99.90
20483;DHT22;10400;53.198;6.592;2023-10-13T09:47:00;18.20;99.90
20483;DHT22;10400;53.198;6.592;2023-10-13T09:49:36;18.20;99.90
20483;DHT22;10400;53.198;6.592;2023-10-13T09:52:16;18.30;99.90
20483;DHT22;10400;53.198;6.592;2023-10-13T09:57:28;18.40;99.90
20483;DHT22;10400;53.198;6.592;2023-10-13T10:00:11;18.40;99.90
20483;DHT22;10400;53.198;6.592;2023-10-13T10:02:57;18.50;99.90
20483;DHT22;10400;53.198;6.592;2023-10-13T10:05:25;18.60;99.90
20483;DHT22;10400;53.198;6.592;2023-10-13T10:07:55;18.60;99.90
20483;DHT22;10400;53.198;6.592;2023-10-13T10:10:22;18.70;99.90
20483;DHT22;10400;53.198;6.592;2023-10-13T10:13:05;18.80;99.90
20483;DHT22;10400;53.198;6.592;2023-10-13T10:15:35;18.80;99.90
20483;DHT22;10400;53.198;6.592;2023-10-13T10:18:22;18.80;99.90
20483;DHT22;10400;53.198;6.592;2023-10-13T10:20:48;18.80;99.90
20483;DHT22;10400;53.198;6.592;2023-10-13T10:23:27;18.80;99.90
20483;DHT22;10400;53.198;6.592;2023-10-13T10:26:14;18.90;99.90
20483;DHT22;10400;53.198;6.592;2023-10-13T10:28:42;18.90;99.90
20483;DHT22;10400;53.198;6.592;2023-10-13T10:31:09;18.90;99.90
20483;DHT22;10400;53.198;6.592;2023-10-13T10:33:38;19.00;99.90
20483;DHT22;10400;53.198;6.592;2023-10-13T10:36:05;19.00;99.90
20483;DHT22;10400;53.198;6.592;2023-10-13T10:38:31;19.10;99.90
20483;DHT22;10400;53.198;6.592;2023-10-13T10:41:06;19.20;99.90
20483;DHT22;10400;53.198;6.592;2023-10-13T10:46:17;19.30;99.90
20483;DHT22;10400;53.198;6.592;2023-10-13T10:48:46;19.40;99.90
20483;DHT22;10400;53.198;6.592;2023-10-13T10:51:15;19.40;99.90
20483;DHT22;10400;53.198;6.592;2023-10-13T10:53:46;19.40;99.90
20483;DHT22;10400;53.198;6.592;2023-10-13T10:56:15;19.40;99.90
20483;DHT22;10400;53.198;6.592;2023-10-13T10:58:54;19.50;99.90
20483;DHT22;10400;53.198;6.592;2023-10-13T11:01:28;19.50;99.90
20483;DHT22;10400;53.198;6.592;2023-10-13T11:04:08;19.50;99.90
20483;DHT22;10400;53.198;6.592;2023-10-13T11:06:37;19.60;99.90
20483;DHT22;10400;53.198;6.592;2023-10-13T11:09:12;19.70;99.90
20483;DHT22;10400;53.198;6.592;2023-10-13T11:14:39;19.80;99.90
20483;DHT22;10400;53.198;6.592;2023-10-13T11:17:05;19.90;99.90
20483;DHT22;10400;53.198;6.592;2023-10-13T11:19:40;20.00;99.90
20483;DHT22;10400;53.198;6.592;2023-10-13T11:22:13;20.00;99.90
20483;DHT22;10400;53.198;6.592;2023-10-13T11:24:59;20.00;99.90
20483;DHT22;10400;53.198;6.592;2023-10-13T11:27:31;20.00;99.90
20483;DHT22;10400;53.198;6.592;2023-10-13T11:30:13;19.90;99.90
20483;DHT22;10400;53.198;6.592;2023-10-13T11:33:08;19.90;99.90
20483;DHT22;10400;53.198;6.592;2023-10-13T11:35:36;20.00;99.90
20483;DHT22;10400;53.198;6.592;2023-10-13T11:40:58;20.10;99.90
20483;DHT22;10400;53.198;6.592;2023-10-13T11:43:46;20.10;99.90
20483;DHT22;10400;53.198;6.592;2023-10-13T11:46:16;20.00;99.90
20483;DHT22;10400;53.198;6.592;2023-10-13T11:48:44;19.90;99.90
20483;DHT22;10400;53.198;6.592;2023-10-13T11:51:12;19.70;99.90
20483;DHT22;10400;53.198;6.592;2023-10-13T11:53:51;19.60;99.90
20483;DHT22;10400;53.198;6.592;2023-10-13T11:56:18;19.50;99.90
20483;DHT22;10400;53.198;6.592;2023-10-13T11:58:46;19.40;99.90
20483;DHT22;10400;53.198;6.592;2023-10-13T12:01:13;19.30;99.90
20483;DHT22;10400;53.198;6.592;2023-10-13T12:03:39;19.30;99.90
20483;DHT22;10400;53.198;6.592;2023-10-13T12:06:23;19.20;99.90
20483;DHT22;10400;53.198;6.592;2023-10-13T12:09:10;19.20;99.90
20483;DHT22;10400;53.198;6.592;2023-10-13T12:11:45;19.20;99.90
20483;DHT22;10400;53.198;6.592;2023-10-13T12:14:15;19.30;99.90
20483;DHT22;10400;53.198;6.592;2023-10-13T12:16:59;19.40;99.90
20483;DHT22;10400;53.198;6.592;2023-10-13T12:19:29;19.50;99.90
20483;DHT22;10400;53.198;6.592;2023-10-13T12:21:56;19.40;99.90
20483;DHT22;10400;53.198;6.592;2023-10-13T12:24:22;19.50;99.90
20483;DHT22;10400;53.198;6.592;2023-10-13T12:27:08;19.60;99.90
20483;DHT22;10400;53.198;6.592;2023-10-13T12:29:49;19.60;99.90
20483;DHT22;10400;53.198;6.592;2023-10-13T12:32:17;19.60;99.90
20483;DHT22;10400;53.198;6.592;2023-10-13T12:34:48;19.70;99.90
20483;DHT22;10400;53.198;6.592;2023-10-13T12:37:23;19.70;99.90
20483;DHT22;10400;53.198;6.592;2023-10-13T12:40:05;19.60;99.90
20483;DHT22;10400;53.198;6.592;2023-10-13T12:42:49;19.60;99.90
20483;DHT22;10400;53.198;6.592;2023-10-13T12:45:45;19.70;99.90
20483;DHT22;10400;53.198;6.592;2023-10-13T12:48:31;19.60;99.90
20483;DHT22;10400;53.198;6.592;2023-10-13T12:51:16;19.50;99.90
20483;DHT22;10400;53.198;6.592;2023-10-13T12:53:54;19.40;99.90
20483;DHT22;10400;53.198;6.592;2023-10-13T12:56:21;19.40;99.90
20483;DHT22;10400;53.198;6.592;2023-10-13T12:58:54;19.40;99.90
20483;DHT22;10400;53.198;6.592;2023-10-13T13:01:21;19.30;99.90
20483;DHT22;10400;53.198;6.592;2023-10-13T13:03:47;19.40;99.90
20483;DHT22;10400;53.198;6.592;2023-10-13T13:06:18;19.30;99.90
20483;DHT22;10400;53.198;6.592;2023-10-13T13:08:56;19.30;99.90
20483;DHT22;10400;53.198;6.592;2023-10-13T13:11:23;19.30;99.90
20483;DHT22;10400;53.198;6.592;2023-10-13T13:13:49;19.20;99.90
20483;DHT22;10400;53.198;6.592;2023-10-13T13:16:15;19.20;99.90
20483;DHT22;10400;53.198;6.592;2023-10-13T13:18:44;19.10;99.90
20483;DHT22;10400;53.198;6.592;2023-10-13T13:21:10;19.00;99.90
20483;DHT22;10400;53.198;6.592;2023-10-13T13:23:46;18.90;99.90
20483;DHT22;10400;53.198;6.592;2023-10-13T13:26:11;18.90;99.90
20483;DHT22;10400;53.198;6.592;2023-10-13T13:28:48;18.90;99.90
20483;DHT22;10400;53.198;6.592;2023-10-13T13:31:20;18.90;99.90
20483;DHT22;10400;53.198;6.592;2023-10-13T13:33:55;18.80;99.90
20483;DHT22;10400;53.198;6.592;2023-10-13T13:36:21;18.80;99.90
20483;DHT22;10400;53.198;6.592;2023-10-13T13:38:48;18.80;99.90
20483;DHT22;10400;53.198;6.592;2023-10-13T13:41:20;18.80;99.90
20483;DHT22;10400;53.198;6.592;2023-10-13T13:43:48;18.70;99.90
20483;DHT22;10400;53.198;6.592;2023-10-13T13:46:24;18.70;99.90
20483;DHT22;10400;53.198;6.592;2023-10-13T13:48:53;18.70;99.90
20483;DHT22;10400;53.198;6.592;2023-10-13T13:51:28;18.70;99.90
20483;DHT22;10400;53.198;6.592;2023-10-13T13:53:57;18.70;99.90
20483;DHT22;10400;53.198;6.592;2023-10-13T13:56:24;18.70;99.90
20483;DHT22;10400;53.198;6.592;2023-10-13T13:58:54;18.70;99.90
20483;DHT22;10400;53.198;6.592;2023-10-13T14:01:21;18.80;99.90
20483;DHT22;10400;53.198;6.592;2023-10-13T14:03:50;18.80;99.90
20483;DHT22;10400;53.198;6.592;2023-10-13T14:06:21;18.80;99.90
20483;DHT22;10400;53.198;6.592;2023-10-13T14:08:50;18.80;99.90
20483;DHT22;10400;53.198;6.592;2023-10-13T14:11:23;18.80;99.90
20483;DHT22;10400;53.198;6.592;2023-10-13T14:16:37;18.80;99.90
20483;DHT22;10400;53.198;6.592;2023-10-13T14:19:03;18.90;99.90
20483;DHT22;10400;53.198;6.592;2023-10-13T14:21:33;18.90;99.90
20483;DHT22;10400;53.198;6.592;2023-10-13T14:24:00;19.00;99.90
20483;DHT22;10400;53.198;6.592;2023-10-13T14:26:27;19.00;99.90
20483;DHT22;10400;53.198;6.592;2023-10-13T14:28:54;19.00;99.90
20483;DHT22;10400;53.198;6.592;2023-10-13T14:31:34;18.90;99.90
20483;DHT22;10400;53.198;6.592;2023-10-13T14:34:02;19.00;99.90
20483;DHT22;10400;53.198;6.592;2023-10-13T14:36:28;19.00;99.90
20483;DHT22;10400;53.198;6.592;2023-10-13T14:38:57;18.90;99.90
20483;DHT22;10400;53.198;6.592;2023-10-13T14:41:22;19.00;99.90
20483;DHT22;10400;53.198;6.592;2023-10-13T14:43:48;19.00;99.90
20483;DHT22;10400;53.198;6.592;2023-10-13T14:46:18;19.00;99.90
20483;DHT22;10400;53.198;6.592;2023-10-13T14:48:48;19.00;99.90
20483;DHT22;10400;53.198;6.592;2023-10-13T14:51:14;19.00;99.90
20483;DHT22;10400;53.198;6.592;2023-10-13T14:53:43;19.00;99.90
20483;DHT22;10400;53.198;6.592;2023-10-13T14:56:12;18.90;99.90
20483;DHT22;10400;53.198;6.592;2023-10-13T14:58:39;19.00;99.90
20483;DHT22;10400;53.198;6.592;2023-10-13T15:01:16;18.90;99.90
20483;DHT22;10400;53.198;6.592;2023-10-13T15:03:43;18.90;99.90
20483;DHT22;10400;53.198;6.592;2023-10-13T15:06:21;18.90;99.90
20483;DHT22;10400;53.198;6.592;2023-10-13T15:08:51;18.90;99.90
20483;DHT22;10400;53.198;6.592;2023-10-13T15:11:17;18.90;99.90
20483;DHT22;10400;53.198;6.592;2023-10-13T15:13:46;18.90;99.90
20483;DHT22;10400;53.198;6.592;2023-10-13T15:16:17;19.00;99.90
20483;DHT22;10400;53.198;6.592;2023-10-13T15:18:50;18.90;99.90
20483;DHT22;10400;53.198;6.592;2023-10-13T15:21:23;18.90;99.90
20483;DHT22;10400;53.198;6.592;2023-10-13T15:23:52;18.90;99.90
20483;DHT22;10400;53.198;6.592;2023-10-13T15:26:21;18.80;99.90
20483;DHT22;10400;53.198;6.592;2023-10-13T15:28:49;18.70;99.90
20483;DHT22;10400;53.198;6.592;2023-10-13T15:31:17;18.60;99.90
20483;DHT22;10400;53.198;6.592;2023-10-13T15:33:58;18.50;99.90
20483;DHT22;10400;53.198;6.592;2023-10-13T15:36:26;18.50;99.90
20483;DHT22;10400;53.198;6.592;2023-10-13T15:38:52;18.40;99.90
20483;DHT22;10400;53.198;6.592;2023-10-13T15:41:28;18.40;99.90
20483;DHT22;10400;53.198;6.592;2023-10-13T15:43:55;18.40;99.90
20483;DHT22;10400;53.198;6.592;2023-10-13T15:46:23;18.40;99.90
20483;DHT22;10400;53.198;6.592;2023-10-13T15:48:51;18.40;99.90
20483;DHT22;10400;53.198;6.592;2023-10-13T15:51:17;18.30;99.90
20483;DHT22;10400;53.198;6.592;2023-10-13T15:53:43;18.30;99.90
20483;DHT22;10400;53.198;6.592;2023-10-13T15:56:10;18.30;99.90
20483;DHT22;10400;53.198;6.592;2023-10-13T15:58:49;18.30;99.90
20483;DHT22;10400;53.198;6.592;2023-10-13T16:01:16;18.30;99.90
20483;DHT22;10400;53.198;6.592;2023-10-13T16:03:45;18.30;99.90
20483;DHT22;10400;53.198;6.592;2023-10-13T16:06:17;18.30;99.90
20483;DHT22;10400;53.198;6.592;2023-10-13T16:08:43;18.30;99.90
20483;DHT22;10400;53.198;6.592;2023-10-13T16:11:13;18.30;99.90
20483;DHT22;10400;53.198;6.592;2023-10-13T16:13:42;18.30;99.90
20483;DHT22;10400;53.198;6.592;2023-10-13T16:16:15;18.30;99.90
20483;DHT22;10400;53.198;6.592;2023-10-13T16:18:42;18.30;99.90
20483;DHT22;10400;53.198;6.592;2023-10-13T16:21:10;18.30;99.90
20483;DHT22;10400;53.198;6.592;2023-10-13T16:23:38;18.30;99.90